Map

Track Data

SID SEASON NUMBER BASIN SUBBASIN NAME ISO_TIME NATURE LAT LON WMO_WIND WMO_PRES WMO_AGENCY TRACK_TYPE DIST2LAND LANDFALL IFLAG USA_AGENCY USA_ATCF_ID USA_LAT USA_LON USA_RECORD USA_STATUS USA_WIND USA_PRES USA_SSHS USA_R34_NE USA_R34_SE USA_R34_SW USA_R34_NW USA_R50_NE USA_R50_SE USA_R50_SW USA_R50_NW USA_R64_NE USA_R64_SE USA_R64_SW USA_R64_NW USA_POCI USA_ROCI USA_RMW USA_EYE TOKYO_LAT TOKYO_LON TOKYO_GRADE TOKYO_WIND TOKYO_PRES TOKYO_R50_DIR TOKYO_R50_LONG TOKYO_R50_SHORT TOKYO_R30_DIR TOKYO_R30_LONG TOKYO_R30_SHORT TOKYO_LAND CMA_LAT CMA_LON CMA_CAT CMA_WIND CMA_PRES HKO_LAT HKO_LON HKO_CAT HKO_WIND HKO_PRES NEWDELHI_LAT NEWDELHI_LON NEWDELHI_GRADE NEWDELHI_WIND NEWDELHI_PRES NEWDELHI_CI NEWDELHI_DP NEWDELHI_POCI REUNION_LAT REUNION_LON REUNION_TYPE REUNION_WIND REUNION_PRES REUNION_TNUM REUNION_CI REUNION_RMW REUNION_R34_NE REUNION_R34_SE REUNION_R34_SW REUNION_R34_NW REUNION_R50_NE REUNION_R50_SE REUNION_R50_SW REUNION_R50_NW REUNION_R64_NE REUNION_R64_SE REUNION_R64_SW REUNION_R64_NW BOM_LAT BOM_LON BOM_TYPE BOM_WIND BOM_PRES BOM_TNUM BOM_CI BOM_RMW BOM_R34_NE BOM_R34_SE BOM_R34_SW BOM_R34_NW BOM_R50_NE BOM_R50_SE BOM_R50_SW BOM_R50_NW BOM_R64_NE BOM_R64_SE BOM_R64_SW BOM_R64_NW BOM_ROCI BOM_POCI BOM_EYE BOM_POS_METHOD BOM_PRES_METHOD NADI_LAT NADI_LON NADI_CAT NADI_WIND NADI_PRES WELLINGTON_LAT WELLINGTON_LON WELLINGTON_WIND WELLINGTON_PRES DS824_LAT DS824_LON DS824_STAGE DS824_WIND DS824_PRES TD9636_LAT TD9636_LON TD9636_STAGE TD9636_WIND TD9636_PRES TD9635_LAT TD9635_LON TD9635_WIND TD9635_PRES TD9635_ROCI NEUMANN_LAT NEUMANN_LON NEUMANN_CLASS NEUMANN_WIND NEUMANN_PRES MLC_LAT MLC_LON MLC_CLASS MLC_WIND MLC_PRES USA_GUST BOM_GUST BOM_GUST_PER REUNION_GUST REUNION_GUST_PER USA_SEAHGT USA_SEARAD_NE USA_SEARAD_SE USA_SEARAD_SW USA_SEARAD_NW STORM_SPEED STORM_DIR
1917251N14133 1917 41 WP MM NOT_NAMED 1917-09-08 09:00:00 NR 14.3000 132.700 main 814 756 __________O___ -1 14.3000 132.700 7 18 301
1917251N14133 1917 41 WP MM NOT_NAMED 1917-09-08 12:00:00 NR 14.7540 131.925 main 751 701 __________P___ -1 14.7540 131.925 7 17 301
1917251N14133 1917 41 WP MM NOT_NAMED 1917-09-08 15:00:00 NR 15.1853 131.169 main 701 654 __________P___ -1 15.1853 131.169 7 16 300
1917251N14133 1917 41 WP MM NOT_NAMED 1917-09-08 18:00:00 NR 15.5739 130.453 main 660 621 __________P___ -1 15.5739 130.453 7 15 298
1917251N14133 1917 41 WP MM NOT_NAMED 1917-09-08 21:00:00 NR 15.9000 129.800 main 621 581 __________O___ -1 15.9000 129.800 7 13 296
1917251N14133 1917 41 WP MM NOT_NAMED 1917-09-09 00:00:00 NR 16.1523 129.226 main 576 534 __________P___ -1 16.1523 129.226 7 11 293
1917251N14133 1917 41 WP MM NOT_NAMED 1917-09-09 03:00:00 NR 16.3511 128.716 main 539 509 __________P___ -1 16.3511 128.716 7 10 292
1917251N14133 1917 41 WP MM NOT_NAMED 1917-09-09 06:00:00 NR 16.5244 128.248 main 501 480 __________P___ -1 16.5244 128.248 7 9 292
1917251N14133 1917 41 WP MM NOT_NAMED 1917-09-09 09:00:00 NR 16.7000 127.800 main 480 456 __________O___ -1 16.7000 127.800 7 10 295
1917251N14133 1917 41 WP MM NOT_NAMED 1917-09-09 12:00:00 NR 16.9379 127.320 main 456 444 __________P___ -1 16.9379 127.320 7 10 298
1917251N14133 1917 41 WP MM NOT_NAMED 1917-09-09 15:00:00 NR 17.1798 126.855 main 453 416 __________P___ -1 17.1798 126.855 7 10 298
1917251N14133 1917 41 WP MM NOT_NAMED 1917-09-09 18:00:00 NR 17.4067 126.413 main 416 377 __________P___ -1 17.4067 126.413 7 9 297
1917251N14133 1917 41 WP MM NOT_NAMED 1917-09-09 21:00:00 NR 17.6000 126.000 main 377 338 __________O___ -1 17.6000 126.000 7 8 292
1917251N14133 1917 41 WP MM NOT_NAMED 1917-09-10 00:00:00 NR 17.7235 125.604 main 338 310 __________P___ -1 17.7235 125.604 7 8 286
1917251N14133 1917 41 WP MM NOT_NAMED 1917-09-10 03:00:00 NR 17.8147 125.239 main 300 273 __________P___ -1 17.8147 125.239 7 7 285
1917251N14133 1917 41 WP MM NOT_NAMED 1917-09-10 06:00:00 NR 17.8986 124.904 main 273 245 __________P___ -1 17.8986 124.904 7 6 287
1917251N14133 1917 41 WP MM NOT_NAMED 1917-09-10 09:00:00 NR 18.0000 124.600 main 245 222 __________O___ -1 18.0000 124.600 7 6 295
1917251N14133 1917 41 WP MM NOT_NAMED 1917-09-10 12:00:00 NR 18.1445 124.361 main 222 200 __________P___ -1 18.1445 124.361 7 5 306
1917251N14133 1917 41 WP MM NOT_NAMED 1917-09-10 15:00:00 NR 18.3113 124.144 main 190 169 __________P___ -1 18.3113 124.144 7 6 309
1917251N14133 1917 41 WP MM NOT_NAMED 1917-09-10 18:00:00 NR 18.4975 123.905 main 169 141 __________P___ -1 18.4975 123.905 7 6 307
1917251N14133 1917 41 WP MM NOT_NAMED 1917-09-10 21:00:00 NR 18.7000 123.600 main 141 110 __________O___ -1 18.7000 123.600 7 8 300
1917251N14133 1917 41 WP MM NOT_NAMED 1917-09-11 00:00:00 NR 18.8990 123.164 main 110 85 __________P___ -1 18.8990 123.164 7 10 295
1917251N14133 1917 41 WP MM NOT_NAMED 1917-09-11 03:00:00 NR 19.1132 122.660 main 88 84 __________P___ -1 19.1132 122.660 7 11 294
1917251N14133 1917 41 WP MM NOT_NAMED 1917-09-11 06:00:00 NR 19.3458 122.126 main 100 100 __________P___ -1 19.3458 122.126 7 11 296
1917251N14133 1917 41 WP MM NOT_NAMED 1917-09-11 09:00:00 NR 19.6000 121.600 main 124 123 __________O___ -1 19.6000 121.600 4 10 299
1917251N14133 1917 41 WP MM NOT_NAMED 1917-09-11 12:00:00 NR 19.8492 121.151 main 137 137 __________P___ -1 19.8492 121.151 4 10 302
1917251N14133 1917 41 WP MM NOT_NAMED 1917-09-11 15:00:00 NR 20.1239 120.713 main 168 168 __________P___ -1 20.1239 120.713 4 10 305
1917251N14133 1917 41 WP MM NOT_NAMED 1917-09-11 18:00:00 NR 20.4366 120.269 main 172 148 __________P___ -1 20.4366 120.269 4 11 308
1917251N14133 1917 41 WP MM NOT_NAMED 1917-09-11 21:00:00 NR 20.8000 119.800 main 154 151 __________O___ -1 20.8000 119.800 4 12 309
1917251N14133 1917 41 WP MM NOT_NAMED 1917-09-12 00:00:00 NR 21.1967 119.258 main 164 164 __________P___ -1 21.1967 119.258 4 13 309
1917251N14133 1917 41 WP MM NOT_NAMED 1917-09-12 03:00:00 NR 21.6457 118.692 main 193 187 __________P___ -1 21.6457 118.692 4 14 312
1917251N14133 1917 41 WP MM NOT_NAMED 1917-09-12 06:00:00 NR 22.1467 118.130 main 186 103 __________P___ -1 22.1467 118.130 4 15 316
1917251N14133 1917 41 WP MM NOT_NAMED 1917-09-12 09:00:00 NR 22.7000 117.600 main 103 22 __________O___ -1 22.7000 117.600 4 15 321
1917251N14133 1917 41 WP MM NOT_NAMED 1917-09-12 12:00:00 NR 23.3362 117.068 main 22 0 __________P___ -1 23.3362 117.068 4 16 325
1917251N14133 1917 41 WP MM NOT_NAMED 1917-09-12 15:00:00 NR 24.0152 116.581 main 0 0 __________P___ -1 24.0152 116.581 4 16 329
1917251N14133 1917 41 WP MM NOT_NAMED 1917-09-12 18:00:00 NR 24.6864 116.178 main 0 0 __________P___ -1 24.6864 116.178 4 14 334
1917251N14133 1917 41 WP MM NOT_NAMED 1917-09-12 21:00:00 NR 25.3000 115.900 main 0 0 __________O___ -1 25.3000 115.900 4 12 341
1917251N14133 1917 41 WP MM NOT_NAMED 1917-09-13 00:00:00 NR 25.8130 115.761 main 0 0 __________P___ -1 25.8130 115.761 4 10 352
1917251N14133 1917 41 WP MM NOT_NAMED 1917-09-13 03:00:00 NR 26.2613 115.752 main 0 0 __________P___ -1 26.2613 115.752 4 8 5
1917251N14133 1917 41 WP MM NOT_NAMED 1917-09-13 06:00:00 NR 26.6539 115.843 main 0 0 __________P___ -1 26.6539 115.843 4 8 17
1917251N14133 1917 41 WP MM NOT_NAMED 1917-09-13 09:00:00 NR 27.0000 116.000 main 0 0 __________O___ -1 27.0000 116.000 4 6 7
1917251N14133 1917 41 WP MM NOT_NAMED 1917-09-13 12:00:00 NR 27.2292 115.935 main 0 0 __________P___ -1 27.2292 115.935 4 4 354
1917251N14133 1917 41 WP MM NOT_NAMED 1917-09-13 15:00:00 NR 27.4311 115.960 main 0 0 __________P___ -1 27.4311 115.960 4 5 29
1917251N14133 1917 41 WP MM NOT_NAMED 1917-09-13 18:00:00 NR 27.6928 116.229 main 0 0 __________P___ -1 27.6928 116.229 4 11 51
1917251N14133 1917 41 WP MM NOT_NAMED 1917-09-13 21:00:00 NR 28.1000 116.900 main 0 0 __________O___ -1 28.1000 116.900 7 20 58
1917251N14133 1917 41 WP MM NOT_NAMED 1917-09-14 00:00:00 NR 28.7782 118.173 main 0 0 __________P___ -1 28.7782 118.173 7 30 60
1917251N14133 1917 41 WP MM NOT_NAMED 1917-09-14 03:00:00 NR 29.5826 119.867 main 0 0 __________P___ -1 29.5826 119.867 7 36 63
1917251N14133 1917 41 WP MM NOT_NAMED 1917-09-14 06:00:00 NR 30.4185 121.806 main 36 36 __________P___ -1 30.4185 121.806 7 38 65
1917251N14133 1917 41 WP MM NOT_NAMED 1917-09-14 09:00:00 NR 31.2000 123.800 main 183 159 __________O___ -1 31.2000 123.800 7 37 66
1917251N14133 1917 41 WP MM NOT_NAMED 1917-09-14 12:00:00 NR 31.9037 125.752 main 152 102 __________P___ -1 31.9037 125.752 7 36 68
1917251N14133 1917 41 WP MM NOT_NAMED 1917-09-14 15:00:00 NR 32.5307 127.691 main 122 21 __________P___ -1 32.5307 127.691 7 33 70
1917251N14133 1917 41 WP MM NOT_NAMED 1917-09-14 18:00:00 NR 33.0404 129.461 main 14 0 __________P___ -1 33.0404 129.461 7 28 72
1917251N14133 1917 41 WP MM NOT_NAMED 1917-09-14 21:00:00 NR 33.4000 130.900 main 0 0 __________O___ -1 33.4000 130.900 7 20 74
1917251N14133 1917 41 WP MM NOT_NAMED 1917-09-15 00:00:00 NR 33.6006 131.781 main 9 9 __________P___ -1 33.6006 131.781 7 12 77
1917251N14133 1917 41 WP MM NOT_NAMED 1917-09-15 03:00:00 NR 33.6742 132.319 main 21 0 __________P___ -1 33.6742 132.319 7 8 85
1917251N14133 1917 41 WP MM NOT_NAMED 1917-09-15 06:00:00 NR 33.6616 132.698 main 0 0 __________P___ -1 33.6616 132.698 7 7 97
1917251N14133 1917 41 WP MM NOT_NAMED 1917-09-15 09:00:00 NR 33.6000 133.100 main 0 0 __________O___ -1 33.6000 133.100 7 10 97
1917251N14133 1917 41 WP MM NOT_NAMED 1917-09-15 12:00:00 NR 33.5462 133.880 main 0 0 __________P___ -1 33.5462 133.880 7 13 96
1917251N14133 1917 41 WP MM NOT_NAMED 1917-09-15 15:00:00 NR 33.4495 134.700 main 38 28 __________P___ -1 33.4495 134.700 7 13 99
1917251N14133 1917 41 WP MM NOT_NAMED 1917-09-15 18:00:00 NR 33.3275 135.470 main 29 11 __________P___ -1 33.3275 135.470 7 12 102
1917251N14133 1917 41 WP MM NOT_NAMED 1917-09-15 21:00:00 NR 33.2000 136.100 main 35 35 __________O___ -1 33.2000 136.100 7 9 106
1917251N14133 1917 41 WP MM NOT_NAMED 1917-09-16 00:00:00 NR 33.0890 136.467 main 71 71 __________P___ -1 33.0890 136.467 7 5 114
1917251N14133 1917 41 WP MM NOT_NAMED 1917-09-16 03:00:00 NR 32.9816 136.691 main 92 92 __________P___ -1 32.9816 136.691 7 4 123
1917251N14133 1917 41 WP MM NOT_NAMED 1917-09-16 06:00:00 NR 32.8836 136.845 main 107 107 __________P___ -1 32.8836 136.845 7 3 125
1917251N14133 1917 41 WP MM NOT_NAMED 1917-09-16 09:00:00 NR 32.8000 137.000 main 128 128 __________O___ -1 32.8000 137.000 7 3 116
1917251N14133 1917 41 WP MM NOT_NAMED 1917-09-16 12:00:00 NR 32.7340 137.212 main 150 150 __________P___ -1 32.7340 137.212 7 4 106
1917251N14133 1917 41 WP MM NOT_NAMED 1917-09-16 15:00:00 NR 32.6820 137.478 main 171 171 __________P___ -1 32.6820 137.478 7 5 101
1917251N14133 1917 41 WP MM NOT_NAMED 1917-09-16 18:00:00 NR 32.6390 137.780 main 201 201 __________P___ -1 32.6390 137.780 7 5 99
1917251N14133 1917 41 WP MM NOT_NAMED 1917-09-16 21:00:00 NR 32.6000 138.100 main 219 __________O___ -1 32.6000 138.100 7 5 98

Digital Typhoon Data and Search

About IBTrACS Database

This database is a web-friendly format of International Best Track Archive for Climate Stewardship (IBTrACS), a global best track data archive curated by NOAA dating back to 1842.

Updated: 2021-10-08